sensor_id;sensor_type;location;lat;lon;timestamp;pressure;altitude;pressure_sealevel;temperature
32827;BMP280;51059;42.058;27.986;2024-02-21T00:00:51;78943.03;;;-131.54
32827;BMP280;51059;42.058;27.986;2024-02-21T00:03:16;78972.13;;;-131.54
32827;BMP280;51059;42.058;27.986;2024-02-21T00:05:43;78974.06;;;-131.54
32827;BMP280;51059;42.058;27.986;2024-02-21T00:08:08;78977.94;;;-131.54
32827;BMP280;51059;42.058;27.986;2024-02-21T00:10:34;78983.75;;;-131.54
32827;BMP280;51059;42.058;27.986;2024-02-21T00:13:01;78985.69;;;-131.54
32827;BMP280;51059;42.058;27.986;2024-02-21T00:15:27;78960.47;;;-131.54
32827;BMP280;51059;42.058;27.986;2024-02-21T00:17:54;78970.19;;;-131.54
32827;BMP280;51059;42.058;27.986;2024-02-21T00:20:20;78964.34;;;-131.54
32827;BMP280;51059;42.058;27.986;2024-02-21T00:22:45;78977.94;;;-131.54
32827;BMP280;51059;42.058;27.986;2024-02-21T00:25:11;78993.44;;;-131.54
32827;BMP280;51059;42.058;27.986;2024-02-21T00:27:38;78995.38;;;-131.54
32827;BMP280;51059;42.058;27.986;2024-02-21T00:30:05;78993.44;;;-131.54
32827;BMP280;51059;42.058;27.986;2024-02-21T00:32:31;78989.56;;;-131.54
32827;BMP280;51059;42.058;27.986;2024-02-21T00:34:59;78999.25;;;-131.54
32827;BMP280;51059;42.058;27.986;2024-02-21T00:37:25;78974.06;;;-131.54
32827;BMP280;51059;42.058;27.986;2024-02-21T00:39:51;78977.94;;;-131.54
32827;BMP280;51059;42.058;27.986;2024-02-21T00:42:16;78987.63;;;-131.54
32827;BMP280;51059;42.058;27.986;2024-02-21T00:44:42;78997.31;;;-131.54
32827;BMP280;51059;42.058;27.986;2024-02-21T00:47:08;78985.69;;;-131.54
32827;BMP280;51059;42.058;27.986;2024-02-21T00:49:35;78970.19;;;-131.54
32827;BMP280;51059;42.058;27.986;2024-02-21T00:52:00;78976.00;;;-131.54
32827;BMP280;51059;42.058;27.986;2024-02-21T00:54:26;78993.44;;;-131.54
32827;BMP280;51059;42.058;27.986;2024-02-21T00:56:52;78987.63;;;-131.54
32827;BMP280;51059;42.058;27.986;2024-02-21T00:59:18;78976.00;;;-131.54
32827;BMP280;51059;42.058;27.986;2024-02-21T01:01:45;78968.25;;;-131.54
32827;BMP280;51059;42.058;27.986;2024-02-21T01:04:11;78976.00;;;-131.54
32827;BMP280;51059;42.058;27.986;2024-02-21T01:06:38;78977.94;;;-131.54
32827;BMP280;51059;42.058;27.986;2024-02-21T01:09:06;78989.56;;;-131.54
32827;BMP280;51059;42.058;27.986;2024-02-21T01:11:32;78995.38;;;-131.54
32827;BMP280;51059;42.058;27.986;2024-02-21T01:13:57;79003.13;;;-131.54
32827;BMP280;51059;42.058;27.986;2024-02-21T01:16:23;78997.31;;;-131.54
32827;BMP280;51059;42.058;27.986;2024-02-21T01:18:49;79005.06;;;-131.54
32827;BMP280;51059;42.058;27.986;2024-02-21T01:21:15;79007.00;;;-131.54
32827;BMP280;51059;42.058;27.986;2024-02-21T01:23:41;79007.00;;;-131.54
32827;BMP280;51059;42.058;27.986;2024-02-21T01:26:07;78995.38;;;-131.54
32827;BMP280;51059;42.058;27.986;2024-02-21T01:28:34;79005.06;;;-131.54
32827;BMP280;51059;42.058;27.986;2024-02-21T01:31:01;79005.06;;;-131.54
32827;BMP280;51059;42.058;27.986;2024-02-21T01:33:27;79032.22;;;-131.54
32827;BMP280;51059;42.058;27.986;2024-02-21T01:35:54;79018.66;;;-131.54
32827;BMP280;51059;42.058;27.986;2024-02-21T01:38:20;79012.84;;;-131.54
32827;BMP280;51059;42.058;27.986;2024-02-21T01:40:46;79016.72;;;-131.54
32827;BMP280;51059;42.058;27.986;2024-02-21T01:43:17;79028.34;;;-131.54
32827;BMP280;51059;42.058;27.986;2024-02-21T01:45:47;79038.03;;;-131.54
32827;BMP280;51059;42.058;27.986;2024-02-21T01:48:13;79028.34;;;-131.54
32827;BMP280;51059;42.058;27.986;2024-02-21T01:50:39;79028.34;;;-131.54
32827;BMP280;51059;42.058;27.986;2024-02-21T01:53:05;79032.22;;;-131.54
32827;BMP280;51059;42.058;27.986;2024-02-21T01:55:32;79016.72;;;-131.54
32827;BMP280;51059;42.058;27.986;2024-02-21T01:57:59;79047.75;;;-131.54
32827;BMP280;51059;42.058;27.986;2024-02-21T02:00:26;79059.38;;;-131.54
32827;BMP280;51059;42.058;27.986;2024-02-21T02:02:52;79076.81;;;-131.54
32827;BMP280;51059;42.058;27.986;2024-02-21T02:05:19;79069.06;;;-131.54
32827;BMP280;51059;42.058;27.986;2024-02-21T02:07:47;79065.19;;;-131.54
32827;BMP280;51059;42.058;27.986;2024-02-21T02:10:13;79071.00;;;-131.54
32827;BMP280;51059;42.058;27.986;2024-02-21T02:12:38;79078.75;;;-131.54
32827;BMP280;51059;42.058;27.986;2024-02-21T02:15:06;79102.03;;;-131.54
32827;BMP280;51059;42.058;27.986;2024-02-21T02:17:31;79096.22;;;-131.54
32827;BMP280;51059;42.058;27.986;2024-02-21T02:19:57;79117.53;;;-131.54
32827;BMP280;51059;42.058;27.986;2024-02-21T02:22:28;79119.47;;;-131.54
32827;BMP280;51059;42.058;27.986;2024-02-21T02:24:55;79127.25;;;-131.54
32827;BMP280;51059;42.058;27.986;2024-02-21T02:27:21;79133.06;;;-131.54
32827;BMP280;51059;42.058;27.986;2024-02-21T02:29:48;79138.88;;;-131.54
32827;BMP280;51059;42.058;27.986;2024-02-21T02:32:15;79138.88;;;-131.54
32827;BMP280;51059;42.058;27.986;2024-02-21T02:34:41;79150.50;;;-131.54
32827;BMP280;51059;42.058;27.986;2024-02-21T02:37:07;79148.56;;;-131.54
32827;BMP280;51059;42.058;27.986;2024-02-21T02:39:33;79175.72;;;-131.54
32827;BMP280;51059;42.058;27.986;2024-02-21T02:41:59;79169.91;;;-131.54
32827;BMP280;51059;42.058;27.986;2024-02-21T02:44:26;79202.88;;;-131.54
32827;BMP280;51059;42.058;27.986;2024-02-21T02:46:52;79183.47;;;-131.54
32827;BMP280;51059;42.058;27.986;2024-02-21T02:49:18;79204.81;;;-131.54
32827;BMP280;51059;42.058;27.986;2024-02-21T02:51:44;79195.13;;;-131.54
32827;BMP280;51059;42.058;27.986;2024-02-21T02:54:11;79214.50;;;-131.54
32827;BMP280;51059;42.058;27.986;2024-02-21T02:56:37;79218.38;;;-131.54
32827;BMP280;51059;42.058;27.986;2024-02-21T02:59:03;79212.56;;;-131.54
32827;BMP280;51059;42.058;27.986;2024-02-21T03:01:29;79214.50;;;-131.54
32827;BMP280;51059;42.058;27.986;2024-02-21T03:03:55;79212.56;;;-131.54
32827;BMP280;51059;42.058;27.986;2024-02-21T03:06:21;79193.16;;;-131.54
32827;BMP280;51059;42.058;27.986;2024-02-21T03:08:47;79183.47;;;-131.54
32827;BMP280;51059;42.058;27.986;2024-02-21T03:11:14;79173.78;;;-131.54
32827;BMP280;51059;42.058;27.986;2024-02-21T03:13:40;79179.59;;;-131.54
32827;BMP280;51059;42.058;27.986;2024-02-21T03:16:06;79169.91;;;-131.54
32827;BMP280;51059;42.058;27.986;2024-02-21T03:18:31;79173.78;;;-131.54
32827;BMP280;51059;42.058;27.986;2024-02-21T03:20:57;79167.97;;;-131.54
32827;BMP280;51059;42.058;27.986;2024-02-21T03:23:23;79183.47;;;-131.54
32827;BMP280;51059;42.058;27.986;2024-02-21T03:25:50;79164.09;;;-131.54
32827;BMP280;51059;42.058;27.986;2024-02-21T03:28:16;79171.84;;;-131.54
32827;BMP280;51059;42.058;27.986;2024-02-21T03:30:42;79164.09;;;-131.54
32827;BMP280;51059;42.058;27.986;2024-02-21T03:33:09;79175.72;;;-131.54
32827;BMP280;51059;42.058;27.986;2024-02-21T03:35:35;79175.72;;;-131.54
32827;BMP280;51059;42.058;27.986;2024-02-21T03:38:00;79171.84;;;-131.54
32827;BMP280;51059;42.058;27.986;2024-02-21T03:40:26;79175.72;;;-131.54
32827;BMP280;51059;42.058;27.986;2024-02-21T03:42:52;79169.91;;;-131.54
32827;BMP280;51059;42.058;27.986;2024-02-21T03:45:24;79166.03;;;-131.54
32827;BMP280;51059;42.058;27.986;2024-02-21T03:47:50;79175.72;;;-131.54
32827;BMP280;51059;42.058;27.986;2024-02-21T03:50:16;79166.03;;;-131.54
32827;BMP280;51059;42.058;27.986;2024-02-21T03:52:42;79156.31;;;-131.54
32827;BMP280;51059;42.058;27.986;2024-02-21T03:55:08;79160.22;;;-131.54
32827;BMP280;51059;42.058;27.986;2024-02-21T03:57:34;79158.25;;;-131.54
32827;BMP280;51059;42.058;27.986;2024-02-21T04:00:00;79164.09;;;-131.54
32827;BMP280;51059;42.058;27.986;2024-02-21T04:02:26;79162.16;;;-131.54
32827;BMP280;51059;42.058;27.986;2024-02-21T04:04:52;79166.03;;;-131.54
32827;BMP280;51059;42.058;27.986;2024-02-21T04:07:18;79167.97;;;-131.54
32827;BMP280;51059;42.058;27.986;2024-02-21T04:09:43;79162.16;;;-131.54
32827;BMP280;51059;42.058;27.986;2024-02-21T04:12:09;79167.97;;;-131.54
32827;BMP280;51059;42.058;27.986;2024-02-21T04:14:35;79169.91;;;-131.54
32827;BMP280;51059;42.058;27.986;2024-02-21T04:17:01;79167.97;;;-131.54
32827;BMP280;51059;42.058;27.986;2024-02-21T04:19:27;79179.59;;;-131.54
32827;BMP280;51059;42.058;27.986;2024-02-21T04:21:53;79189.28;;;-131.54
32827;BMP280;51059;42.058;27.986;2024-02-21T04:24:20;79191.22;;;-131.54
32827;BMP280;51059;42.058;27.986;2024-02-21T04:26:46;79200.94;;;-131.54
32827;BMP280;51059;42.058;27.986;2024-02-21T04:29:13;79210.63;;;-131.54
32827;BMP280;51059;42.058;27.986;2024-02-21T04:31:39;79218.38;;;-131.54
32827;BMP280;51059;42.058;27.986;2024-02-21T04:34:06;79220.31;;;-131.54
32827;BMP280;51059;42.058;27.986;2024-02-21T04:36:32;79228.06;;;-131.54
32827;BMP280;51059;42.058;27.986;2024-02-21T04:38:58;79233.91;;;-131.54
32827;BMP280;51059;42.058;27.986;2024-02-21T04:41:24;79255.22;;;-131.54
32827;BMP280;51059;42.058;27.986;2024-02-21T04:43:50;79253.28;;;-131.54
32827;BMP280;51059;42.058;27.986;2024-02-21T04:46:16;79249.41;;;-131.54
32827;BMP280;51059;42.058;27.986;2024-02-21T04:48:42;79261.03;;;-131.54
32827;BMP280;51059;42.058;27.986;2024-02-21T04:51:08;79262.97;;;-131.54
32827;BMP280;51059;42.058;27.986;2024-02-21T04:53:34;79253.28;;;-131.54
32827;BMP280;51059;42.058;27.986;2024-02-21T04:55:59;79253.28;;;-131.54
32827;BMP280;51059;42.058;27.986;2024-02-21T04:58:26;79261.03;;;-131.54
32827;BMP280;51059;42.058;27.986;2024-02-21T05:00:52;79270.75;;;-131.54
32827;BMP280;51059;42.058;27.986;2024-02-21T05:03:20;79280.44;;;-131.54
32827;BMP280;51059;42.058;27.986;2024-02-21T05:05:46;79259.09;;;-131.54
32827;BMP280;51059;42.058;27.986;2024-02-21T05:08:12;79264.94;;;-131.54
32827;BMP280;51059;42.058;27.986;2024-02-21T05:10:38;79264.94;;;-131.54
32827;BMP280;51059;42.058;27.986;2024-02-21T05:13:04;79262.97;;;-131.54
32827;BMP280;51059;42.058;27.986;2024-02-21T05:15:31;79264.94;;;-131.54
32827;BMP280;51059;42.058;27.986;2024-02-21T05:17:56;79243.59;;;-131.54
32827;BMP280;51059;42.058;27.986;2024-02-21T05:20:22;79230.00;;;-131.54
32827;BMP280;51059;42.058;27.986;2024-02-21T05:22:48;79222.25;;;-131.54
32827;BMP280;51059;42.058;27.986;2024-02-21T05:25:14;79210.63;;;-131.54
32827;BMP280;51059;42.058;27.986;2024-02-21T05:27:40;79204.81;;;-131.54
32827;BMP280;51059;42.058;27.986;2024-02-21T05:30:06;79185.41;;;-131.54
32827;BMP280;51059;42.058;27.986;2024-02-21T05:32:32;79183.47;;;-131.54
32827;BMP280;51059;42.058;27.986;2024-02-21T05:34:58;79164.09;;;-131.54
32827;BMP280;51059;42.058;27.986;2024-02-21T05:37:23;79167.97;;;-131.54
32827;BMP280;51059;42.058;27.986;2024-02-21T05:39:49;79140.81;;;-131.54
32827;BMP280;51059;42.058;27.986;2024-02-21T05:42:16;79135.00;;;-131.54
32827;BMP280;51059;42.058;27.986;2024-02-21T05:44:42;79123.38;;;-131.54
32827;BMP280;51059;42.058;27.986;2024-02-21T05:47:08;79105.91;;;-131.54
32827;BMP280;51059;42.058;27.986;2024-02-21T05:49:36;79105.91;;;-131.54
32827;BMP280;51059;42.058;27.986;2024-02-21T05:52:02;79072.94;;;-131.54
32827;BMP280;51059;42.058;27.986;2024-02-21T05:54:28;79047.75;;;-131.54
32827;BMP280;51059;42.058;27.986;2024-02-21T05:56:55;78991.50;;;-131.54
32827;BMP280;51059;42.058;27.986;2024-02-21T05:59:21;78950.78;;;-131.54
32827;BMP280;51059;42.058;27.986;2024-02-21T06:01:55;78915.88;;;-131.54
32827;BMP280;51059;42.058;27.986;2024-02-21T06:04:24;78865.47;;;-131.54
32827;BMP280;51059;42.058;27.986;2024-02-21T06:06:50;78803.41;;;-131.54
32827;BMP280;51059;42.058;27.986;2024-02-21T06:09:17;78758.81;;;-131.54
32827;BMP280;51059;42.058;27.986;2024-02-21T06:11:42;78735.56;;;-131.54
32827;BMP280;51059;42.058;27.986;2024-02-21T06:14:08;78714.22;;;-131.54
32827;BMP280;51059;42.058;27.986;2024-02-21T06:16:34;78669.63;;;-131.54
32827;BMP280;51059;42.058;27.986;2024-02-21T06:19:00;78644.44;;;-131.54
32827;BMP280;51059;42.058;27.986;2024-02-21T06:21:29;78605.66;;;-131.54
32827;BMP280;51059;42.058;27.986;2024-02-21T06:23:56;78586.28;;;-131.54
32827;BMP280;51059;42.058;27.986;2024-02-21T06:26:22;78590.16;;;-131.54
32827;BMP280;51059;42.058;27.986;2024-02-21T06:28:48;78576.56;;;-131.54
32827;BMP280;51059;42.058;27.986;2024-02-21T06:31:14;78568.81;;;-131.54
32827;BMP280;51059;42.058;27.986;2024-02-21T06:33:41;78561.06;;;-131.54
32827;BMP280;51059;42.058;27.986;2024-02-21T06:36:08;78564.94;;;-131.54
32827;BMP280;51059;42.058;27.986;2024-02-21T06:38:33;78574.63;;;-131.54
32827;BMP280;51059;42.058;27.986;2024-02-21T06:41:02;78493.22;;;-131.54
32827;BMP280;51059;42.058;27.986;2024-02-21T06:43:28;78442.81;;;-131.54
32827;BMP280;51059;42.058;27.986;2024-02-21T06:45:56;78433.13;;;-131.54
32827;BMP280;51059;42.058;27.986;2024-02-21T06:48:22;78435.06;;;-131.54
32827;BMP280;51059;42.058;27.986;2024-02-21T06:50:48;78435.06;;;-131.54
32827;BMP280;51059;42.058;27.986;2024-02-21T06:53:14;78413.72;;;-131.54
32827;BMP280;51059;42.058;27.986;2024-02-21T06:55:40;78332.31;;;-131.54
32827;BMP280;51059;42.058;27.986;2024-02-21T06:58:06;78353.63;;;-131.54
32827;BMP280;51059;42.058;27.986;2024-02-21T07:00:34;78415.66;;;-131.54
32827;BMP280;51059;42.058;27.986;2024-02-21T07:03:00;78380.78;;;-131.54
32827;BMP280;51059;42.058;27.986;2024-02-21T07:05:25;78349.75;;;-131.54
32827;BMP280;51059;42.058;27.986;2024-02-21T07:07:51;78287.72;;;-131.54
32827;BMP280;51059;42.058;27.986;2024-02-21T07:10:18;78186.91;;;-131.54
32827;BMP280;51059;42.058;27.986;2024-02-21T07:12:44;78171.41;;;-131.54
32827;BMP280;51059;42.058;27.986;2024-02-21T07:15:11;78150.09;;;-131.54
32827;BMP280;51059;42.058;27.986;2024-02-21T07:17:37;78134.56;;;-131.54
32827;BMP280;51059;42.058;27.986;2024-02-21T07:20:03;78101.63;;;-131.54
32827;BMP280;51059;42.058;27.986;2024-02-21T07:22:28;78049.28;;;-131.54
32827;BMP280;51059;42.058;27.986;2024-02-21T07:24:54;78031.84;;;-131.54
32827;BMP280;51059;42.058;27.986;2024-02-21T07:27:20;77965.94;;;-131.54
32827;BMP280;51059;42.058;27.986;2024-02-21T07:29:46;77900.03;;;-131.54
32827;BMP280;51059;42.058;27.986;2024-02-21T07:32:14;77950.44;;;-131.54
32827;BMP280;51059;42.058;27.986;2024-02-21T07:34:40;77977.56;;;-131.54
32827;BMP280;51059;42.058;27.986;2024-02-21T07:37:06;77925.22;;;-131.54
32827;BMP280;51059;42.058;27.986;2024-02-21T07:39:36;77810.88;;;-131.54
32827;BMP280;51059;42.058;27.986;2024-02-21T07:42:03;77777.91;;;-131.54
32827;BMP280;51059;42.058;27.986;2024-02-21T07:44:28;77739.16;;;-131.54
32827;BMP280;51059;42.058;27.986;2024-02-21T07:46:54;77772.09;;;-131.54
32827;BMP280;51059;42.058;27.986;2024-02-21T07:49:20;77746.91;;;-131.54
32827;BMP280;51059;42.058;27.986;2024-02-21T07:51:46;77719.78;;;-131.54
32827;BMP280;51059;42.058;27.986;2024-02-21T07:54:12;77793.41;;;-131.54
32827;BMP280;51059;42.058;27.986;2024-02-21T07:56:39;77843.81;;;-131.54
32827;BMP280;51059;42.058;27.986;2024-02-21T07:59:05;77836.06;;;-131.54
32827;BMP280;51059;42.058;27.986;2024-02-21T08:01:31;77888.41;;;-131.54
32827;BMP280;51059;42.058;27.986;2024-02-21T08:03:59;77958.19;;;-131.54
32827;BMP280;51059;42.058;27.986;2024-02-21T08:06:26;78093.88;;;-131.54
32827;BMP280;51059;42.058;27.986;2024-02-21T08:08:52;78090.00;;;-131.54
32827;BMP280;51059;42.058;27.986;2024-02-21T08:11:18;78029.91;;;-131.54
32827;BMP280;51059;42.058;27.986;2024-02-21T08:13:44;78031.84;;;-131.54
32827;BMP280;51059;42.058;27.986;2024-02-21T08:16:10;78004.69;;;-131.54
32827;BMP280;51059;42.058;27.986;2024-02-21T08:18:36;77993.06;;;-131.54
32827;BMP280;51059;42.058;27.986;2024-02-21T08:21:04;77989.19;;;-131.54
32827;BMP280;51059;42.058;27.986;2024-02-21T08:23:30;77927.16;;;-131.54
32827;BMP280;51059;42.058;27.986;2024-02-21T08:25:56;77911.66;;;-131.54
32827;BMP280;51059;42.058;27.986;2024-02-21T08:28:22;77882.59;;;-131.54
32827;BMP280;51059;42.058;27.986;2024-02-21T08:30:48;77973.69;;;-131.54
32827;BMP280;51059;42.058;27.986;2024-02-21T08:33:15;77913.59;;;-131.54
32827;BMP280;51059;42.058;27.986;2024-02-21T08:35:42;77960.13;;;-131.54
32827;BMP280;51059;42.058;27.986;2024-02-21T08:38:08;78150.09;;;-131.54
32827;BMP280;51059;42.058;27.986;2024-02-21T08:40:34;78229.56;;;-131.54
32827;BMP280;51059;42.058;27.986;2024-02-21T08:43:01;78252.81;;;-131.54
32827;BMP280;51059;42.058;27.986;2024-02-21T08:45:27;78303.22;;;-131.54
32827;BMP280;51059;42.058;27.986;2024-02-21T08:47:53;78324.53;;;-131.54
32827;BMP280;51059;42.058;27.986;2024-02-21T08:50:18;78361.38;;;-131.54
32827;BMP280;51059;42.058;27.986;2024-02-21T08:52:45;78390.47;;;-131.54
32827;BMP280;51059;42.058;27.986;2024-02-21T08:55:11;78413.72;;;-131.54
32827;BMP280;51059;42.058;27.986;2024-02-21T08:57:37;78427.28;;;-131.54
32827;BMP280;51059;42.058;27.986;2024-02-21T09:00:06;78411.78;;;-131.54
32827;BMP280;51059;42.058;27.986;2024-02-21T09:02:41;78423.41;;;-131.54
32827;BMP280;51059;42.058;27.986;2024-02-21T09:05:12;78438.94;;;-131.54
32827;BMP280;51059;42.058;27.986;2024-02-21T09:07:38;78425.34;;;-131.54
32827;BMP280;51059;42.058;27.986;2024-02-21T09:10:04;78442.81;;;-131.54
32827;BMP280;51059;42.058;27.986;2024-02-21T09:12:31;78431.19;;;-131.54
32827;BMP280;51059;42.058;27.986;2024-02-21T09:14:57;78425.34;;;-131.54
32827;BMP280;51059;42.058;27.986;2024-02-21T09:17:22;78427.28;;;-131.54
32827;BMP280;51059;42.058;27.986;2024-02-21T09:19:50;78421.47;;;-131.54
32827;BMP280;51059;42.058;27.986;2024-02-21T09:22:16;78415.66;;;-131.54
32827;BMP280;51059;42.058;27.986;2024-02-21T09:24:43;78402.09;;;-131.54
32827;BMP280;51059;42.058;27.986;2024-02-21T09:27:09;78369.13;;;-131.54
32827;BMP280;51059;42.058;27.986;2024-02-21T09:29:37;78289.66;;;-131.54
32827;BMP280;51059;42.058;27.986;2024-02-21T09:32:05;78198.53;;;-131.54
32827;BMP280;51059;42.058;27.986;2024-02-21T09:34:31;78132.63;;;-131.54
32827;BMP280;51059;42.058;27.986;2024-02-21T09:36:57;78070.59;;;-131.54
32827;BMP280;51059;42.058;27.986;2024-02-21T09:39:22;78138.44;;;-131.54
32827;BMP280;51059;42.058;27.986;2024-02-21T09:41:53;78217.94;;;-131.54
32827;BMP280;51059;42.058;27.986;2024-02-21T09:44:23;78124.88;;;-131.54
32827;BMP280;51059;42.058;27.986;2024-02-21T09:46:58;78020.19;;;-131.54
32827;BMP280;51059;42.058;27.986;2024-02-21T09:49:33;78002.75;;;-131.54
32827;BMP280;51059;42.058;27.986;2024-02-21T09:52:04;77867.06;;;-131.54
32827;BMP280;51059;42.058;27.986;2024-02-21T09:54:34;78012.44;;;-131.54
32827;BMP280;51059;42.058;27.986;2024-02-21T09:57:00;78041.53;;;-131.54
32827;BMP280;51059;42.058;27.986;2024-02-21T09:59:31;77896.16;;;-131.54
32827;BMP280;51059;42.058;27.986;2024-02-21T10:01:57;77927.16;;;-131.54
32827;BMP280;51059;42.058;27.986;2024-02-21T10:04:26;77923.28;;;-131.54
32827;BMP280;51059;42.058;27.986;2024-02-21T10:06:53;78027.97;;;-131.54
32827;BMP280;51059;42.058;27.986;2024-02-21T10:11:49;77907.78;;;-131.54
32827;BMP280;51059;42.058;27.986;2024-02-21T10:14:17;78082.22;;;-131.54
32827;BMP280;51059;42.058;27.986;2024-02-21T10:16:46;78132.63;;;-131.54
32827;BMP280;51059;42.058;27.986;2024-02-21T10:19:19;78152.03;;;-131.54
32827;BMP280;51059;42.058;27.986;2024-02-21T10:24:28;78152.03;;;-131.54
32827;BMP280;51059;42.058;27.986;2024-02-21T10:27:05;78231.50;;;-131.54
32827;BMP280;51059;42.058;27.986;2024-02-21T10:29:34;78252.81;;;-131.54
32827;BMP280;51059;42.058;27.986;2024-02-21T10:32:11;78281.91;;;-131.54
32827;BMP280;51059;42.058;27.986;2024-02-21T10:34:38;78279.97;;;-131.54
32827;BMP280;51059;42.058;27.986;2024-02-21T10:37:09;78293.53;;;-131.54
32827;BMP280;51059;42.058;27.986;2024-02-21T10:39:39;78305.16;;;-131.54
32827;BMP280;51059;42.058;27.986;2024-02-21T10:42:06;78336.19;;;-131.54
32827;BMP280;51059;42.058;27.986;2024-02-21T10:44:36;78411.78;;;-131.54
32827;BMP280;51059;42.058;27.986;2024-02-21T10:47:12;78400.16;;;-131.54
32827;BMP280;51059;42.058;27.986;2024-02-21T10:49:44;78392.41;;;-131.54
32827;BMP280;51059;42.058;27.986;2024-02-21T10:52:40;78400.16;;;-131.54
32827;BMP280;51059;42.058;27.986;2024-02-21T10:55:26;78402.09;;;-131.54
32827;BMP280;51059;42.058;27.986;2024-02-21T10:57:56;78411.78;;;-131.54
32827;BMP280;51059;42.058;27.986;2024-02-21T11:00:24;78396.28;;;-131.54
32827;BMP280;51059;42.058;27.986;2024-02-21T11:02:57;78392.41;;;-131.54
32827;BMP280;51059;42.058;27.986;2024-02-21T11:05:24;78404.03;;;-131.54
32827;BMP280;51059;42.058;27.986;2024-02-21T11:07:50;78413.72;;;-131.54
32827;BMP280;51059;42.058;27.986;2024-02-21T11:10:23;78405.97;;;-131.54
32827;BMP280;51059;42.058;27.986;2024-02-21T11:13:11;78365.25;;;-131.54
32827;BMP280;51059;42.058;27.986;2024-02-21T11:15:38;78382.72;;;-131.54
32827;BMP280;51059;42.058;27.986;2024-02-21T11:18:06;78442.81;;;-131.54
32827;BMP280;51059;42.058;27.986;2024-02-21T11:20:37;78425.34;;;-131.54
32827;BMP280;51059;42.058;27.986;2024-02-21T11:23:03;78411.78;;;-131.54
32827;BMP280;51059;42.058;27.986;2024-02-21T11:25:31;78431.19;;;-131.54
32827;BMP280;51059;42.058;27.986;2024-02-21T11:28:01;78477.69;;;-131.54
32827;BMP280;51059;42.058;27.986;2024-02-21T11:30:30;78487.41;;;-131.54
32827;BMP280;51059;42.058;27.986;2024-02-21T11:33:03;78508.72;;;-131.54
32827;BMP280;51059;42.058;27.986;2024-02-21T11:35:33;78491.28;;;-131.54
32827;BMP280;51059;42.058;27.986;2024-02-21T11:38:12;78466.06;;;-131.54
32827;BMP280;51059;42.058;27.986;2024-02-21T11:40:46;78429.22;;;-131.54
32827;BMP280;51059;42.058;27.986;2024-02-21T11:43:13;78458.31;;;-131.54
32827;BMP280;51059;42.058;27.986;2024-02-21T11:45:39;78473.81;;;-131.54
32827;BMP280;51059;42.058;27.986;2024-02-21T11:48:07;78433.13;;;-131.54
32827;BMP280;51059;42.058;27.986;2024-02-21T11:50:36;78433.13;;;-131.54
32827;BMP280;51059;42.058;27.986;2024-02-21T11:53:02;78421.47;;;-131.54
32827;BMP280;51059;42.058;27.986;2024-02-21T11:55:28;78446.69;;;-131.54
32827;BMP280;51059;42.058;27.986;2024-02-21T11:57:56;78444.75;;;-131.54
32827;BMP280;51059;42.058;27.986;2024-02-21T12:00:23;78458.31;;;-131.54
32827;BMP280;51059;42.058;27.986;2024-02-21T12:02:52;78469.94;;;-131.54
32827;BMP280;51059;42.058;27.986;2024-02-21T12:05:20;78473.81;;;-131.54
32827;BMP280;51059;42.058;27.986;2024-02-21T12:07:46;78450.56;;;-131.54
32827;BMP280;51059;42.058;27.986;2024-02-21T12:10:13;78417.59;;;-131.54
32827;BMP280;51059;42.058;27.986;2024-02-21T12:12:40;78419.53;;;-131.54
32827;BMP280;51059;42.058;27.986;2024-02-21T12:15:07;78405.97;;;-131.54
32827;BMP280;51059;42.058;27.986;2024-02-21T12:17:37;78349.75;;;-131.54
32827;BMP280;51059;42.058;27.986;2024-02-21T12:20:05;78322.59;;;-131.54
32827;BMP280;51059;42.058;27.986;2024-02-21T12:22:37;78336.19;;;-131.54
32827;BMP280;51059;42.058;27.986;2024-02-21T12:25:21;78312.91;;;-131.54
32827;BMP280;51059;42.058;27.986;2024-02-21T12:27:52;78320.66;;;-131.54
32827;BMP280;51059;42.058;27.986;2024-02-21T12:30:19;78293.53;;;-131.54
32827;BMP280;51059;42.058;27.986;2024-02-21T12:32:48;78264.44;;;-131.54
32827;BMP280;51059;42.058;27.986;2024-02-21T12:35:16;78301.28;;;-131.54
32827;BMP280;51059;42.058;27.986;2024-02-21T12:37:43;78332.31;;;-131.54
32827;BMP280;51059;42.058;27.986;2024-02-21T12:40:10;78359.44;;;-131.54
32827;BMP280;51059;42.058;27.986;2024-02-21T12:42:36;78367.19;;;-131.54
32827;BMP280;51059;42.058;27.986;2024-02-21T12:45:02;78373.00;;;-131.54
32827;BMP280;51059;42.058;27.986;2024-02-21T12:47:32;78371.06;;;-131.54
32827;BMP280;51059;42.058;27.986;2024-02-21T12:49:58;78353.63;;;-131.54
32827;BMP280;51059;42.058;27.986;2024-02-21T12:52:24;78369.13;;;-131.54
32827;BMP280;51059;42.058;27.986;2024-02-21T12:54:50;78334.25;;;-131.54
32827;BMP280;51059;42.058;27.986;2024-02-21T12:57:17;78332.31;;;-131.54
32827;BMP280;51059;42.058;27.986;2024-02-21T12:59:43;78320.66;;;-131.54
32827;BMP280;51059;42.058;27.986;2024-02-21T13:02:08;78310.97;;;-131.54
32827;BMP280;51059;42.058;27.986;2024-02-21T13:04:35;78289.66;;;-131.54
32827;BMP280;51059;42.058;27.986;2024-02-21T13:07:01;78285.78;;;-131.54
32827;BMP280;51059;42.058;27.986;2024-02-21T13:09:27;78303.22;;;-131.54
32827;BMP280;51059;42.058;27.986;2024-02-21T13:11:52;78276.09;;;-131.54
32827;BMP280;51059;42.058;27.986;2024-02-21T13:14:18;78297.41;;;-131.54
32827;BMP280;51059;42.058;27.986;2024-02-21T13:16:44;78285.78;;;-131.54
32827;BMP280;51059;42.058;27.986;2024-02-21T13:19:10;78268.31;;;-131.54
32827;BMP280;51059;42.058;27.986;2024-02-21T13:21:36;78299.34;;;-131.54
32827;BMP280;51059;42.058;27.986;2024-02-21T13:24:02;78299.34;;;-131.54
32827;BMP280;51059;42.058;27.986;2024-02-21T13:26:29;78316.78;;;-131.54
32827;BMP280;51059;42.058;27.986;2024-02-21T13:28:55;78295.47;;;-131.54
32827;BMP280;51059;42.058;27.986;2024-02-21T13:31:21;78303.22;;;-131.54
32827;BMP280;51059;42.058;27.986;2024-02-21T13:33:47;78312.91;;;-131.54
32827;BMP280;51059;42.058;27.986;2024-02-21T13:36:13;78326.50;;;-131.54